Time;durP1;ratioP1;P1;durP2;ratioP2;P2;SDS_P1;SDS_P2;PMS_P1;PMS_P2;Temp;Humidity;BMP_temperature;BMP_pressure;BME280_temperature;BME280_humidity;BME280_pressure;Samples;Min_cycle;Max_cycle;Signal;HPM_P1;HPM_P2
2021/05/16 00:00:15;;;;;;;6.45;5.50;;;11.40;99.90;;;;;;4823802;29;20135;-77
2021/05/16 00:02:42;;;;;;;6.40;5.20;;;11.40;99.90;;;;;;4822489;29;20495;-77
2021/05/16 00:05:09;;;;;;;6.63;5.10;;;11.50;99.90;;;;;;4822344;29;20054;-77
2021/05/16 00:07:38;;;;;;;7.38;5.05;;;11.40;99.90;;;;;;4822140;29;20058;-78
2021/05/16 00:10:07;;;;;;;7.68;5.38;;;11.40;99.90;;;;;;4823562;29;20062;-76
2021/05/16 00:12:36;;;;;;;7.00;5.70;;;11.40;99.90;;;;;;4823457;29;20043;-77
2021/05/16 00:15:06;;;;;;;8.10;5.93;;;11.40;99.90;;;;;;4807623;29;20052;-77
2021/05/16 00:17:32;;;;;;;8.50;6.20;;;11.40;99.90;;;;;;4822226;29;20496;-78
2021/05/16 00:19:58;;;;;;;9.88;6.68;;;11.40;99.90;;;;;;4823507;29;20045;-77
2021/05/16 00:22:24;;;;;;;9.60;7.30;;;11.40;99.90;;;;;;4820395;29;20039;-77
2021/05/16 00:24:50;;;;;;;7.65;6.25;;;11.40;99.90;;;;;;4823066;29;20171;-77
2021/05/16 00:27:16;;;;;;;7.50;6.25;;;11.40;99.90;;;;;;4830167;29;20054;-77
2021/05/16 00:29:42;;;;;;;9.18;6.80;;;11.40;99.90;;;;;;4807023;29;20130;-77
2021/05/16 00:32:08;;;;;;;9.40;6.72;;;11.40;99.90;;;;;;4819965;29;20097;-77
2021/05/16 00:34:34;;;;;;;7.78;6.10;;;11.40;99.90;;;;;;4822906;29;20050;-77
2021/05/16 00:37:00;;;;;;;7.45;6.53;;;11.30;99.90;;;;;;4823318;29;20066;-77
2021/05/16 00:39:26;;;;;;;9.20;6.25;;;11.40;99.90;;;;;;4823250;29;20155;-77
2021/05/16 00:41:52;;;;;;;10.85;6.65;;;11.30;99.90;;;;;;4823176;29;20046;-77
2021/05/16 00:44:22;;;;;;;9.10;6.82;;;11.30;99.90;;;;;;4822983;29;20427;-77
2021/05/16 00:46:49;;;;;;;8.07;7.00;;;11.50;99.90;;;;;;4827117;29;20035;-77
2021/05/16 00:49:16;;;;;;;10.05;6.68;;;11.30;99.90;;;;;;4820764;29;20035;-77
2021/05/16 00:51:43;;;;;;;8.77;6.55;;;11.30;99.90;;;;;;4821793;29;20043;-76
2021/05/16 00:54:09;;;;;;;9.13;6.60;;;11.50;99.90;;;;;;4821955;29;20094;-76
2021/05/16 00:56:37;;;;;;;8.25;7.05;;;11.30;99.90;;;;;;4821386;29;20568;-77
2021/05/16 00:59:04;;;;;;;8.40;7.53;;;11.30;99.90;;;;;;4792982;29;20035;-77
2021/05/16 01:01:30;;;;;;;9.18;7.18;;;11.40;99.90;;;;;;4819226;29;20061;-74
2021/05/16 01:03:56;;;;;;;9.13;7.28;;;11.40;99.90;;;;;;4821633;29;20031;-75
2021/05/16 01:06:22;;;;;;;9.63;7.88;;;11.30;99.90;;;;;;4820958;29;20121;-74
2021/05/16 01:08:49;;;;;;;9.02;7.38;;;11.50;99.90;;;;;;4812300;29;20059;-75
2021/05/16 01:11:19;;;;;;;7.70;6.90;;;11.30;99.90;;;;;;4803911;29;20167;-74
2021/05/16 01:13:48;;;;;;;9.25;7.90;;;11.20;99.90;;;;;;4810021;29;20034;-75
2021/05/16 01:16:14;;;;;;;9.05;6.93;;;11.30;99.90;;;;;;4823485;29;20398;-75
2021/05/16 01:18:40;;;;;;;9.65;7.00;;;11.20;99.90;;;;;;4825603;29;20034;-77
2021/05/16 01:21:07;;;;;;;8.60;7.13;;;11.10;99.90;;;;;;4826586;29;20121;-77
2021/05/16 01:23:46;;;;;;;9.18;7.13;;;11.20;99.90;;;;;;4825395;29;20053;-77
2021/05/16 01:26:13;;;;;;;8.70;7.60;;;11.20;99.90;;;;;;4824909;29;20046;-77
2021/05/16 01:28:42;;;;;;;8.95;7.38;;;11.20;99.90;;;;;;4824936;29;20066;-77
2021/05/16 01:31:08;;;;;;;9.35;7.63;;;11.20;99.90;;;;;;4823210;29;20039;-77
2021/05/16 01:33:34;;;;;;;10.05;7.50;;;11.30;99.90;;;;;;4825373;29;20046;-77
2021/05/16 01:36:02;;;;;;;11.07;7.85;;;11.20;99.90;;;;;;4824792;29;20068;-77
2021/05/16 01:38:28;;;;;;;10.32;8.52;;;11.20;99.90;;;;;;4824681;29;20034;-77
2021/05/16 01:40:54;;;;;;;9.60;8.18;;;11.20;99.90;;;;;;4824490;29;20467;-77
2021/05/16 01:43:20;;;;;;;9.25;8.15;;;11.20;99.90;;;;;;4825913;29;20067;-77
2021/05/16 01:45:45;;;;;;;11.38;8.60;;;11.20;99.90;;;;;;4825090;29;20465;-77
2021/05/16 01:48:11;;;;;;;10.73;9.27;;;11.20;99.90;;;;;;4825303;29;20568;-77
2021/05/16 01:50:38;;;;;;;11.25;9.25;;;11.30;99.90;;;;;;4824383;29;20049;-79
2021/05/16 01:53:07;;;;;;;10.07;8.98;;;11.20;99.90;;;;;;4824700;29;20046;-78
2021/05/16 01:55:34;;;;;;;11.43;9.48;;;11.20;99.90;;;;;;4823946;29;20042;-78
2021/05/16 01:58:02;;;;;;;10.85;9.27;;;11.20;99.90;;;;;;4825713;29;20053;-85
2021/05/16 02:00:39;;;;;;;12.63;9.13;;;11.20;99.90;;;;;;4824155;29;20117;-84
2021/05/16 02:03:05;;;;;;;14.63;10.45;;;11.10;99.90;;;;;;4824899;29;20064;-84
2021/05/16 02:05:33;;;;;;;11.60;10.23;;;11.10;99.90;;;;;;4824107;29;20496;-84
2021/05/16 02:08:03;;;;;;;11.98;10.77;;;11.10;99.90;;;;;;4825683;29;20074;-84
2021/05/16 02:10:33;;;;;;;12.20;11.00;;;11.10;99.90;;;;;;4826015;29;20046;-84
2021/05/16 02:12:59;;;;;;;13.32;10.95;;;11.10;99.90;;;;;;4825997;29;20509;-84
2021/05/16 02:15:25;;;;;;;14.02;12.00;;;11.60;99.90;;;;;;4820861;29;20046;-85
2021/05/16 02:17:59;;;;;;;13.65;12.15;;;11.10;99.90;;;;;;4824562;29;20066;-85
2021/05/16 02:20:25;;;;;;;12.98;11.40;;;11.10;99.90;;;;;;4820321;29;20175;-84
2021/05/16 02:22:51;;;;;;;14.60;13.02;;;11.10;99.90;;;;;;4830539;29;20043;-84
2021/05/16 02:25:17;;;;;;;14.85;12.27;;;11.00;99.90;;;;;;4824762;29;20039;-84
2021/05/16 02:27:47;;;;;;;16.48;13.23;;;11.00;99.90;;;;;;4784219;29;20462;-84
2021/05/16 02:30:14;;;;;;;15.38;12.80;;;11.10;99.90;;;;;;4823972;29;20463;-84
2021/05/16 02:32:41;;;;;;;14.98;12.65;;;11.10;99.90;;;;;;4801683;29;20076;-83
2021/05/16 02:35:11;;;;;;;14.82;13.32;;;11.80;99.90;;;;;;4833593;29;20518;-84
2021/05/16 02:37:37;;;;;;;15.25;13.20;;;11.10;99.90;;;;;;4816297;29;20043;-83
2021/05/16 02:40:12;;;;;;;19.02;13.48;;;11.10;99.90;;;;;;4830612;29;20068;-84
2021/05/16 02:42:39;;;;;;;15.30;12.90;;;11.10;99.90;;;;;;4823847;29;20385;-84
2021/05/16 02:45:06;;;;;;;14.38;12.88;;;11.10;99.90;;;;;;4823733;29;20050;-84
2021/05/16 02:47:32;;;;;;;14.48;12.98;;;11.10;99.90;;;;;;4824924;29;20506;-84
2021/05/16 02:49:58;;;;;;;15.55;13.63;;;11.10;99.90;;;;;;4823529;29;20038;-82
2021/05/16 02:52:24;;;;;;;15.73;14.13;;;11.50;99.90;;;;;;4803855;29;20039;-82
2021/05/16 02:54:50;;;;;;;15.18;13.57;;;11.50;99.90;;;;;;4814644;29;20444;-82
2021/05/16 02:57:16;;;;;;;17.73;14.10;;;11.10;99.90;;;;;;4824639;29;20042;-82
2021/05/16 02:59:41;;;;;;;16.40;14.65;;;11.80;99.90;;;;;;4805073;29;20054;-82
2021/05/16 03:02:07;;;;;;;18.08;14.25;;;11.20;99.90;;;;;;4829541;29;20042;-84
2021/05/16 03:04:33;;;;;;;16.13;14.43;;;11.10;99.90;;;;;;4823207;29;20054;-83
2021/05/16 03:07:01;;;;;;;17.00;15.10;;;11.10;99.90;;;;;;4824247;29;20038;-83
2021/05/16 03:09:29;;;;;;;17.50;14.30;;;11.10;99.90;;;;;;4823117;29;20047;-83
2021/05/16 03:11:55;;;;;;;15.77;14.18;;;11.20;99.90;;;;;;4824769;29;20042;-83
2021/05/16 03:14:22;;;;;;;16.90;14.82;;;11.10;99.90;;;;;;4823718;29;20388;-83
2021/05/16 03:16:54;;;;;;;16.73;14.73;;;11.10;99.90;;;;;;4824914;29;20045;-82
2021/05/16 03:19:22;;;;;;;16.47;14.77;;;11.40;99.90;;;;;;4823841;29;20115;-82
2021/05/16 03:21:48;;;;;;;18.10;15.18;;;11.00;99.90;;;;;;4824510;29;20483;-82
2021/05/16 03:24:14;;;;;;;18.67;15.00;;;11.80;99.90;;;;;;4804859;29;20565;-82
2021/05/16 03:26:41;;;;;;;17.63;15.73;;;11.00;99.90;;;;;;4823312;29;20087;-82
2021/05/16 03:29:10;;;;;;;17.83;15.93;;;11.30;99.90;;;;;;4823469;29;20041;-82
2021/05/16 03:31:37;;;;;;;20.17;17.27;;;11.00;99.90;;;;;;4808091;29;20403;-82
2021/05/16 03:34:06;;;;;;;18.40;16.52;;;11.00;99.90;;;;;;4806507;29;20052;-82
2021/05/16 03:36:32;;;;;;;17.75;15.85;;;11.00;99.90;;;;;;4820470;29;20061;-81
2021/05/16 03:38:58;;;;;;;18.45;16.55;;;11.00;99.90;;;;;;4821561;29;20053;-80
2021/05/16 03:41:31;;;;;;;17.77;15.88;;;11.30;99.90;;;;;;4804741;29;20050;-80
2021/05/16 03:43:59;;;;;;;17.85;16.05;;;11.10;99.90;;;;;;4779126;29;20096;-80
2021/05/16 03:46:25;;;;;;;19.05;16.77;;;11.30;99.90;;;;;;4817590;29;20053;-80
2021/05/16 03:48:51;;;;;;;19.23;17.23;;;11.20;99.90;;;;;;4795469;29;20459;-80
2021/05/16 03:51:17;;;;;;;23.42;17.05;;;11.10;99.90;;;;;;4814090;29;20046;-80
2021/05/16 03:53:43;;;;;;;21.15;18.20;;;11.40;99.90;;;;;;4817853;29;20034;-80
2021/05/16 03:56:09;;;;;;;20.70;17.35;;;10.60;99.90;;;;;;4807444;29;20066;-80
2021/05/16 03:58:36;;;;;;;21.08;18.40;;;11.10;99.90;;;;;;4807427;29;20057;-80
2021/05/16 04:01:03;;;;;;;20.75;17.58;;;11.20;99.90;;;;;;4818664;29;20042;-80
2021/05/16 04:03:29;;;;;;;19.92;17.77;;;11.10;99.90;;;;;;4823863;29;20046;-80
2021/05/16 04:05:55;;;;;;;19.77;17.75;;;11.20;99.90;;;;;;4822528;29;20103;-82
2021/05/16 04:08:21;;;;;;;19.75;17.65;;;11.10;99.90;;;;;;4802839;29;20119;-82
2021/05/16 04:10:47;;;;;;;19.88;17.60;;;11.10;99.90;;;;;;4814762;29;20137;-82
2021/05/16 04:13:13;;;;;;;20.83;18.63;;;11.70;99.90;;;;;;4821780;29;20072;-82
2021/05/16 04:15:39;;;;;;;20.58;18.42;;;11.20;99.90;;;;;;4823633;29;20046;-81
2021/05/16 04:18:07;;;;;;;28.98;20.67;;;11.00;99.90;;;;;;4823080;29;20049;-81
2021/05/16 04:20:36;;;;;;;22.20;19.58;;;11.20;99.90;;;;;;4822119;29;20117;-82
2021/05/16 04:23:02;;;;;;;22.40;19.92;;;11.20;99.90;;;;;;4821063;29;20050;-81
2021/05/16 04:25:28;;;;;;;24.30;19.95;;;11.20;99.90;;;;;;4801262;29;20062;-81
2021/05/16 04:27:55;;;;;;;22.83;20.15;;;11.20;99.90;;;;;;4816580;29;20043;-81
2021/05/16 04:30:21;;;;;;;22.73;20.35;;;11.20;99.90;;;;;;4823290;29;20148;-81
2021/05/16 04:32:48;;;;;;;24.63;21.20;;;11.30;99.90;;;;;;4823465;29;20127;-81
2021/05/16 04:35:14;;;;;;;23.23;20.73;;;11.20;99.90;;;;;;4821890;29;20043;-83
2021/05/16 04:37:40;;;;;;;25.98;20.08;;;11.20;99.90;;;;;;4822483;29;20436;-83
2021/05/16 04:40:07;;;;;;;23.63;20.02;;;11.40;99.90;;;;;;4821106;29;20121;-83
2021/05/16 04:42:33;;;;;;;24.05;20.95;;;11.30;99.90;;;;;;4822099;29;20070;-83
2021/05/16 04:45:02;;;;;;;26.33;22.02;;;11.20;99.90;;;;;;4822173;29;20115;-82
2021/05/16 04:47:28;;;;;;;28.73;21.60;;;11.20;99.90;;;;;;4823251;29;20046;-82
2021/05/16 04:49:54;;;;;;;26.88;20.98;;;11.20;99.90;;;;;;4823279;29;20042;-82
2021/05/16 04:52:20;;;;;;;29.20;21.63;;;11.20;99.90;;;;;;4824823;29;20070;-82
2021/05/16 04:54:48;;;;;;;27.52;21.00;;;11.70;99.90;;;;;;4825831;29;20436;-82
2021/05/16 04:57:14;;;;;;;29.60;22.13;;;11.20;99.90;;;;;;4824489;29;20104;-83
2021/05/16 04:59:40;;;;;;;28.58;21.48;;;12.00;99.90;;;;;;4824964;29;20047;-82
2021/05/16 05:02:07;;;;;;;28.00;21.75;;;11.20;99.90;;;;;;4817638;29;20378;-82
2021/05/16 05:04:35;;;;;;;27.52;21.58;;;12.00;99.90;;;;;;4822811;29;20057;-82
2021/05/16 05:07:04;;;;;;;25.58;21.17;;;11.40;99.90;;;;;;4826602;29;20035;-83
2021/05/16 05:09:30;;;;;;;25.92;21.23;;;11.20;99.90;;;;;;4807983;29;20070;-83
2021/05/16 05:11:56;;;;;;;27.42;23.15;;;11.60;99.90;;;;;;4825016;29;20121;-83
2021/05/16 05:14:22;;;;;;;27.98;22.58;;;11.20;99.90;;;;;;4824234;29;20555;-83
2021/05/16 05:16:48;;;;;;;31.27;21.88;;;11.30;99.90;;;;;;4811589;29;20476;-81
2021/05/16 05:19:13;;;;;;;29.00;21.00;;;11.20;99.90;;;;;;4807366;29;20099;-84
2021/05/16 05:21:42;;;;;;;26.25;20.73;;;11.50;99.90;;;;;;4825067;29;20038;-84
2021/05/16 05:24:09;;;;;;;26.08;20.20;;;11.60;99.90;;;;;;4826712;29;20035;-84
2021/05/16 05:26:35;;;;;;;29.17;20.25;;;11.20;99.90;;;;;;4824878;29;20077;-85
2021/05/16 05:29:07;;;;;;;25.35;19.95;;;11.40;99.90;;;;;;4821702;29;20389;-85
2021/05/16 05:31:33;;;;;;;26.80;20.33;;;11.20;99.90;;;;;;4821444;29;20510;-86
2021/05/16 05:34:00;;;;;;;24.17;18.70;;;11.00;99.90;;;;;;4792518;29;20043;-86
2021/05/16 05:36:29;;;;;;;24.92;18.80;;;12.00;99.90;;;;;;4819824;29;20091;-86
2021/05/16 05:38:58;;;;;;;28.17;19.77;;;11.40;99.90;;;;;;4813425;29;20099;-85
2021/05/16 05:41:27;;;;;;;27.55;20.25;;;11.30;99.90;;;;;;4818679;29;20050;-85
2021/05/16 05:43:53;;;;;;;32.05;20.67;;;11.20;99.90;;;;;;4826091;29;20058;-85
2021/05/16 05:46:19;;;;;;;35.03;21.70;;;11.40;99.90;;;;;;4825666;29;20054;-86
2021/05/16 05:48:45;;;;;;;34.20;22.17;;;11.30;99.90;;;;;;4809905;29;20137;-85
2021/05/16 05:51:11;;;;;;;39.83;24.83;;;11.30;99.90;;;;;;4810219;29;20042;-86
2021/05/16 05:53:42;;;;;;;36.95;24.50;;;11.30;99.90;;;;;;4813290;29;20047;-83
2021/05/16 05:56:08;;;;;;;40.83;24.48;;;11.30;99.90;;;;;;4825796;29;20091;-83
2021/05/16 05:58:35;;;;;;;41.45;24.23;;;12.00;99.90;;;;;;4824943;29;20046;-83
2021/05/16 06:01:03;;;;;;;36.35;23.63;;;11.30;99.90;;;;;;4824338;29;20694;-82
2021/05/16 06:03:29;;;;;;;37.30;24.48;;;11.30;99.90;;;;;;4807959;29;20133;-82
2021/05/16 06:05:58;;;;;;;40.17;25.13;;;11.40;99.90;;;;;;4825555;29;20080;-83
2021/05/16 06:08:24;;;;;;;41.17;25.30;;;11.40;99.90;;;;;;4823976;29;20415;-83
2021/05/16 06:10:50;;;;;;;43.85;25.05;;;11.60;99.90;;;;;;4825191;29;20039;-82
2021/05/16 06:13:16;;;;;;;48.17;26.25;;;12.40;99.90;;;;;;4824231;29;20551;-82
2021/05/16 06:15:41;;;;;;;49.03;28.30;;;12.50;99.90;;;;;;4809295;29;20058;-83
2021/05/16 06:18:07;;;;;;;45.58;28.35;;;11.50;99.90;;;;;;4821841;29;20050;-82
2021/05/16 06:20:34;;;;;;;47.10;28.80;;;11.70;99.90;;;;;;4823748;29;20049;-83
2021/05/16 06:23:05;;;;;;;50.10;28.77;;;11.60;99.90;;;;;;4824125;29;20073;-82
2021/05/16 06:25:30;;;;;;;48.78;28.77;;;11.70;99.90;;;;;;4811914;29;20075;-83
2021/05/16 06:27:56;;;;;;;51.03;29.33;;;11.60;99.90;;;;;;4825167;29;20456;-79
2021/05/16 06:30:27;;;;;;;57.17;29.02;;;11.70;99.90;;;;;;4823286;29;20113;-82
2021/05/16 06:32:53;;;;;;;54.08;30.05;;;11.80;99.90;;;;;;4824904;29;20042;-80
2021/05/16 06:35:20;;;;;;;53.63;28.45;;;11.80;99.90;;;;;;4822732;29;20388;-77
2021/05/16 06:37:47;;;;;;;46.90;27.67;;;11.80;99.90;;;;;;4823411;29;20045;-77
2021/05/16 06:40:14;;;;;;;42.63;26.45;;;11.80;99.90;;;;;;4824704;29;20125;-73
2021/05/16 06:42:42;;;;;;;48.63;27.25;;;11.80;99.90;;;;;;4824066;29;20046;-87
2021/05/16 06:45:11;;;;;;;43.85;25.35;;;11.80;99.90;;;;;;4822972;29;20056;-86
2021/05/16 06:47:37;;;;;;;43.90;25.60;;;11.80;99.90;;;;;;4819165;29;20047;-87
2021/05/16 06:50:07;;;;;;;41.22;23.38;;;11.70;99.90;;;;;;4821055;29;20038;-87
2021/05/16 06:52:34;;;;;;;40.50;23.55;;;11.80;99.90;;;;;;4808597;29;20106;-87
2021/05/16 06:55:03;;;;;;;34.55;22.10;;;11.70;99.90;;;;;;4823563;29;20049;-87
2021/05/16 06:57:35;;;;;;;42.05;23.08;;;11.80;99.90;;;;;;4822197;29;20066;-84
2021/05/16 07:00:01;;;;;;;34.13;21.23;;;12.50;99.90;;;;;;4814999;29;20484;-83
2021/05/16 07:02:27;;;;;;;36.05;22.30;;;11.80;99.90;;;;;;4822989;29;20491;-80
2021/05/16 07:04:53;;;;;;;35.15;22.20;;;11.90;99.90;;;;;;4802528;29;20038;-79
2021/05/16 07:07:19;;;;;;;36.22;22.13;;;12.00;99.90;;;;;;4821918;29;20470;-79
2021/05/16 07:09:45;;;;;;;33.78;22.00;;;12.00;99.90;;;;;;4821587;29;20086;-78
2021/05/16 07:12:11;;;;;;;34.85;22.08;;;12.00;99.90;;;;;;4803200;29;20049;-79
2021/05/16 07:14:37;;;;;;;33.97;22.42;;;12.30;99.90;;;;;;4810631;29;20045;-79
2021/05/16 07:17:03;;;;;;;34.92;21.38;;;12.20;99.90;;;;;;4808526;29;20038;-77
2021/05/16 07:19:29;;;;;;;27.40;19.75;;;12.30;99.90;;;;;;4807205;29;20162;-86
2021/05/16 07:22:04;;;;;;;30.67;19.63;;;12.20;99.90;;;;;;4820719;29;20419;-81
2021/05/16 07:24:30;;;;;;;33.75;19.85;;;12.20;99.90;;;;;;4817193;29;20071;-81
2021/05/16 07:26:55;;;;;;;28.45;19.35;;;12.20;99.90;;;;;;4819497;29;20038;-81
2021/05/16 07:29:21;;;;;;;28.25;18.77;;;12.20;99.90;;;;;;4821512;29;20061;-82
2021/05/16 07:31:51;;;;;;;28.85;18.98;;;12.30;99.90;;;;;;4790156;29;20046;-81
2021/05/16 07:34:17;;;;;;;32.65;20.20;;;12.30;99.90;;;;;;4816792;29;20053;-81
2021/05/16 07:36:44;;;;;;;34.83;17.77;;;12.40;99.90;;;;;;4818149;29;20179;-76
2021/05/16 07:39:14;;;;;;;25.40;17.23;;;12.40;99.90;;;;;;4815202;29;20039;-74
2021/05/16 07:41:40;;;;;;;25.17;16.58;;;12.40;99.90;;;;;;4814953;29;20090;-75
2021/05/16 07:44:06;;;;;;;27.40;16.33;;;12.40;99.90;;;;;;4812384;29;20465;-77
2021/05/16 07:46:32;;;;;;;29.13;17.33;;;12.40;99.90;;;;;;4814193;29;20046;-76
2021/05/16 07:48:58;;;;;;;26.33;15.95;;;12.50;99.90;;;;;;4819459;29;20039;-76
2021/05/16 07:51:24;;;;;;;25.10;15.75;;;12.70;99.90;;;;;;4814823;29;20050;-82
2021/05/16 07:53:55;;;;;;;24.42;15.00;;;12.60;99.90;;;;;;4819096;29;20042;-77
2021/05/16 07:56:22;;;;;;;20.27;14.38;;;12.80;99.90;;;;;;4820245;29;20118;-79
2021/05/16 07:58:48;;;;;;;21.45;14.00;;;12.80;99.90;;;;;;4820796;29;20496;-81
2021/05/16 08:01:16;;;;;;;22.33;13.30;;;12.90;99.90;;;;;;4817506;29;20046;-79
2021/05/16 08:03:42;;;;;;;19.52;13.70;;;13.00;99.90;;;;;;4823544;29;20043;-78
2021/05/16 08:06:11;;;;;;;22.40;13.88;;;13.10;99.90;;;;;;4822407;29;20532;-78
2021/05/16 08:08:38;;;;;;;22.52;13.98;;;13.20;99.90;;;;;;4806884;29;20134;-81
2021/05/16 08:11:04;;;;;;;20.20;12.75;;;13.50;99.90;;;;;;4821400;29;20582;-74
2021/05/16 08:13:30;;;;;;;20.48;13.70;;;13.40;99.90;;;;;;4814922;29;20038;-74
2021/05/16 08:15:56;;;;;;;20.92;14.15;;;13.40;99.90;;;;;;4818194;29;20046;-73
2021/05/16 08:18:24;;;;;;;25.83;14.10;;;13.30;99.90;;;;;;4817668;29;20043;-72
2021/05/16 08:20:50;;;;;;;25.20;11.00;;;13.20;99.90;;;;;;4814376;29;20073;-77
2021/05/16 08:23:16;;;;;;;9.40;4.82;;;13.10;99.90;;;;;;4817657;29;20488;-80
2021/05/16 08:25:44;;;;;;;4.60;2.22;;;12.80;99.90;;;;;;4814580;29;20051;-80
2021/05/16 08:28:12;;;;;;;9.35;2.50;;;12.50;99.90;;;;;;4820760;29;20508;-80
2021/05/16 08:30:38;;;;;;;6.10;2.00;;;12.20;99.90;;;;;;4822164;29;20034;-82
2021/05/16 08:33:04;;;;;;;8.80;2.03;;;11.80;99.90;;;;;;4820203;29;20073;-80
2021/05/16 08:35:33;;;;;;;5.63;2.22;;;12.00;99.90;;;;;;4810500;29;20046;-80
2021/05/16 08:37:59;;;;;;;6.45;2.30;;;11.40;99.90;;;;;;4825964;29;20038;-79
2021/05/16 08:40:25;;;;;;;4.82;1.77;;;11.30;99.90;;;;;;4818571;29;20039;-77
2021/05/16 08:42:51;;;;;;;5.65;1.95;;;11.40;99.90;;;;;;4825958;29;20439;-80
2021/05/16 08:45:17;;;;;;;8.27;2.35;;;11.30;99.90;;;;;;4824491;29;20058;-77
2021/05/16 08:47:45;;;;;;;7.40;2.90;;;11.30;99.90;;;;;;4810442;29;20035;-75
2021/05/16 08:50:17;;;;;;;6.78;3.45;;;11.40;99.90;;;;;;4815826;29;20046;-76
2021/05/16 08:52:43;;;;;;;7.45;4.05;;;11.60;99.90;;;;;;4813583;29;20117;-76
2021/05/16 08:55:14;;;;;;;8.57;4.90;;;11.90;99.90;;;;;;4825576;29;20453;-78
2021/05/16 08:57:44;;;;;;;8.93;5.05;;;12.50;99.90;;;;;;4822725;29;20050;-77
2021/05/16 09:00:20;;;;;;;8.10;5.53;;;12.20;99.90;;;;;;4807039;29;20039;-76
2021/05/16 09:03:14;;;;;;;12.35;6.28;;;12.40;99.90;;;;;;4814476;29;20480;-76
2021/05/16 09:05:51;;;;;;;9.35;5.43;;;12.40;99.90;;;;;;4820165;29;20126;-77
2021/05/16 09:08:26;;;;;;;9.73;4.65;;;12.90;99.90;;;;;;4815069;29;20047;-77
2021/05/16 09:10:58;;;;;;;10.68;4.40;;;12.60;99.90;;;;;;4809910;29;20038;-77
2021/05/16 09:13:35;;;;;;;10.82;3.85;;;12.60;99.90;;;;;;4820276;29;20080;-77
2021/05/16 09:16:18;;;;;;;9.32;4.03;;;12.70;99.90;;;;;;4821965;29;20487;-77
2021/05/16 09:18:55;;;;;;;8.30;3.92;;;12.70;99.90;;;;;;4819223;29;20118;-77
2021/05/16 09:21:31;;;;;;;8.60;3.75;;;12.60;99.90;;;;;;4820756;29;20042;-74
2021/05/16 09:24:16;;;;;;;8.18;3.10;;;12.80;99.90;;;;;;4820578;29;20045;-77
2021/05/16 09:26:55;;;;;;;4.97;2.53;;;12.70;99.90;;;;;;4808268;29;20050;-79
2021/05/16 09:29:22;;;;;;;5.40;3.38;;;13.00;99.90;;;;;;4821031;29;20038;-79
2021/05/16 09:31:49;;;;;;;6.97;3.58;;;12.70;99.90;;;;;;4818712;29;20035;-78
2021/05/16 09:34:16;;;;;;;7.20;2.78;;;12.80;99.90;;;;;;4816067;29;20423;-76
2021/05/16 09:36:45;;;;;;;5.90;3.30;;;12.70;99.90;;;;;;4820310;29;20056;-77
2021/05/16 09:39:44;;;;;;;7.45;3.30;;;12.70;99.90;;;;;;4818909;29;20047;-74
2021/05/16 09:42:18;;;;;;;7.25;3.60;;;12.70;99.90;;;;;;4820689;29;20453;-83
2021/05/16 09:44:48;;;;;;;6.75;3.65;;;12.80;99.90;;;;;;4819196;29;20054;-77
2021/05/16 09:47:19;;;;;;;11.05;4.07;;;12.70;99.90;;;;;;4820700;29;20065;-77
2021/05/16 09:49:46;;;;;;;4.90;3.33;;;12.80;99.90;;;;;;4820671;29;20038;-75
2021/05/16 09:52:33;;;;;;;8.70;3.90;;;12.70;99.90;;;;;;4820098;29;20390;-75
2021/05/16 09:55:08;;;;;;;6.72;3.80;;;12.70;99.90;;;;;;4837881;29;20066;-75
2021/05/16 09:57:38;;;;;;;7.40;4.20;;;12.60;99.90;;;;;;4820475;29;20042;-76
2021/05/16 10:00:15;;;;;;;8.93;4.93;;;12.60;99.90;;;;;;4816730;29;20062;-76
2021/05/16 10:02:49;;;;;;;11.80;5.80;;;12.60;99.90;;;;;;4819599;29;20035;-79
2021/05/16 10:05:18;;;;;;;10.40;5.25;;;12.70;99.90;;;;;;4800300;29;20050;-84
2021/05/16 10:07:44;;;;;;;12.15;6.55;;;12.70;99.90;;;;;;4825855;29;20068;-79
2021/05/16 10:10:12;;;;;;;8.35;5.85;;;12.80;99.90;;;;;;4821632;29;20034;-81
2021/05/16 10:12:43;;;;;;;10.75;5.70;;;12.90;99.90;;;;;;4814801;29;20084;-82
2021/05/16 10:15:20;;;;;;;9.50;6.30;;;12.90;99.90;;;;;;4791976;29;20137;-84
2021/05/16 10:17:57;;;;;;;10.02;4.97;;;13.00;99.90;;;;;;4814541;29;20038;-83
2021/05/16 10:20:26;;;;;;;11.90;5.63;;;13.40;99.90;;;;;;4811469;29;20083;-77
2021/05/16 10:22:57;;;;;;;7.28;4.72;;;13.20;99.90;;;;;;4817258;29;20460;-79
2021/05/16 10:25:42;;;;;;;7.13;5.43;;;13.30;99.90;;;;;;4810437;29;20511;-79
2021/05/16 10:28:16;;;;;;;12.15;5.43;;;13.40;99.90;;;;;;4817941;29;20511;-80
2021/05/16 10:31:10;;;;;;;7.63;5.03;;;13.50;99.90;;;;;;4816010;29;20121;-78
2021/05/16 10:33:40;;;;;;;7.78;4.63;;;13.60;99.90;;;;;;4837759;29;20398;-84
2021/05/16 10:36:11;;;;;;;6.63;3.67;;;13.70;99.90;;;;;;4814855;29;20050;-82
2021/05/16 10:38:40;;;;;;;5.50;3.50;;;13.80;99.90;;;;;;4821548;29;20038;-82
2021/05/16 10:41:17;;;;;;;6.60;2.90;;;13.90;99.90;;;;;;4793321;29;20497;-81
2021/05/16 10:43:43;;;;;;;5.40;2.50;;;14.00;99.90;;;;;;4810273;29;20102;-81
2021/05/16 10:46:45;;;;;;;4.80;2.70;;;14.10;99.90;;;;;;4821821;29;20050;-82
2021/05/16 10:49:25;;;;;;;4.93;3.00;;;14.10;99.90;;;;;;4822304;29;20073;-81
2021/05/16 10:51:52;;;;;;;4.22;2.75;;;14.40;99.90;;;;;;4822188;29;20050;-80
2021/05/16 10:54:33;;;;;;;3.85;2.58;;;14.10;99.90;;;;;;4808602;29;20090;-80
2021/05/16 10:57:13;;;;;;;2.80;2.20;;;14.30;99.90;;;;;;4822074;29;20163;-82
2021/05/16 10:59:43;;;;;;;4.38;2.50;;;14.20;99.90;;;;;;4824276;29;20038;-82
2021/05/16 11:02:09;;;;;;;8.90;3.42;;;14.20;99.90;;;;;;4805767;29;20042;-81
2021/05/16 11:04:48;;;;;;;6.95;3.20;;;14.30;99.90;;;;;;4817444;29;20361;-81
2021/05/16 11:07:38;;;;;;;7.50;3.10;;;14.30;99.90;;;;;;4804614;29;20125;-82
2021/05/16 11:10:22;;;;;;;8.20;3.80;;;14.20;99.90;;;;;;4815288;29;20469;-81
2021/05/16 11:12:48;;;;;;;6.10;3.35;;;14.40;99.90;;;;;;4820392;29;20035;-80
2021/05/16 11:15:24;;;;;;;5.15;3.22;;;13.90;99.90;;;;;;4812395;29;20043;-81
2021/05/16 11:17:59;;;;;;;4.65;2.53;;;13.90;99.90;;;;;;4811773;29;20512;-83
2021/05/16 11:20:25;;;;;;;6.50;2.53;;;14.00;99.90;;;;;;4829493;29;20045;-86
2021/05/16 11:22:56;;;;;;;4.20;2.70;;;13.80;99.90;;;;;;4800072;29;20061;-83
2021/05/16 11:25:26;;;;;;;5.28;2.50;;;13.70;99.90;;;;;;4818491;29;20508;-82
2021/05/16 11:27:52;;;;;;;4.53;2.53;;;13.70;99.90;;;;;;4837169;29;20069;-82
2021/05/16 11:30:30;;;;;;;5.55;2.70;;;14.60;99.90;;;;;;4817637;29;20117;-86
2021/05/16 11:32:56;;;;;;;5.47;3.15;;;13.90;99.90;;;;;;4828229;29;20042;-86
2021/05/16 11:35:25;;;;;;;4.75;2.92;;;14.00;99.90;;;;;;4821159;29;20472;-83
2021/05/16 11:37:55;;;;;;;6.68;3.05;;;14.00;99.90;;;;;;4821046;29;20034;-79
2021/05/16 11:40:28;;;;;;;6.30;2.55;;;14.00;99.90;;;;;;4816923;29;20303;-78
2021/05/16 11:43:03;;;;;;;7.95;2.25;;;13.90;99.90;;;;;;4811901;29;20130;-82
2021/05/16 11:45:46;;;;;;;4.97;3.22;;;13.70;99.90;;;;;;4816459;29;20516;-79
2021/05/16 11:48:45;;;;;;;7.82;4.05;;;13.70;99.90;;;;;;4822903;29;20046;-81
2021/05/16 11:54:43;;;;;;;8.70;4.40;;;13.50;99.90;;;;;;4821122;29;20059;-85
2021/05/16 11:57:32;;;;;;;3.70;2.15;;;13.60;99.90;;;;;;4817979;29;20416;-83
2021/05/16 11:59:58;;;;;;;4.65;1.70;;;13.00;99.90;;;;;;4807116;29;20455;-82
2021/05/16 12:02:25;;;;;;;5.93;2.70;;;13.00;99.90;;;;;;4822653;29;20043;-83
2021/05/16 12:04:51;;;;;;;5.15;1.85;;;13.20;99.90;;;;;;4822380;29;20420;-89
2021/05/16 12:07:28;;;;;;;3.20;1.40;;;13.30;99.90;;;;;;4823548;29;20098;-89
2021/05/16 12:10:06;;;;;;;6.78;2.00;;;13.30;99.90;;;;;;4824660;29;20044;-88
2021/05/16 12:12:34;;;;;;;5.63;2.08;;;13.00;99.90;;;;;;4816769;29;20530;-87
2021/05/16 12:15:02;;;;;;;4.15;1.30;;;13.30;99.90;;;;;;4789148;29;20050;-88
2021/05/16 12:17:40;;;;;;;;;;;;;;;;;;;;;
2021/05/16 12:20:32;;;;;;;5.82;3.05;;;13.60;99.90;;;;;;4810388;29;20441;-87
2021/05/16 12:23:05;;;;;;;5.32;2.15;;;13.70;99.90;;;;;;4817444;29;20043;-87
2021/05/16 12:25:31;;;;;;;4.57;2.30;;;13.70;99.90;;;;;;4795772;29;20419;-86
2021/05/16 12:28:01;;;;;;;6.10;2.17;;;14.00;99.90;;;;;;4807124;29;20034;-85
2021/05/16 12:30:32;;;;;;;7.28;2.47;;;14.00;99.90;;;;;;4819593;29;20524;-77
2021/05/16 12:32:58;;;;;;;7.07;2.83;;;14.00;99.90;;;;;;4822881;29;20459;-82
2021/05/16 12:35:29;;;;;;;6.47;2.20;;;14.20;99.90;;;;;;4822270;29;20099;-79
2021/05/16 12:37:55;;;;;;;4.88;2.03;;;14.10;99.90;;;;;;4821321;29;20041;-79
2021/05/16 12:40:25;;;;;;;6.80;2.97;;;14.10;99.90;;;;;;4816123;29;20078;-79
2021/05/16 12:43:05;;;;;;;5.95;2.80;;;14.10;99.90;;;;;;4816279;29;20122;-79
2021/05/16 12:45:32;;;;;;;9.60;4.50;;;14.30;99.90;;;;;;4814381;29;20500;-78
2021/05/16 12:48:05;;;;;;;6.80;3.00;;;14.40;99.90;;;;;;4805908;29;20062;-78
2021/05/16 12:50:40;;;;;;;8.68;2.13;;;14.50;99.90;;;;;;4816069;29;20042;-81